sensor_id;sensor_type;location;lat;lon;timestamp;pressure;altitude;pressure_sealevel;temperature;humidity
62025;BME280;47978;49.118;12.146;2022-07-17T10:45:53;98318.19;;;24.82;26.44
62025;BME280;47978;49.118;12.146;2022-07-17T10:48:20;98321.50;;;24.88;26.81
62025;BME280;47978;49.118;12.146;2022-07-17T10:50:50;98322.03;;;24.71;25.35
62025;BME280;47978;49.118;12.146;2022-07-17T10:53:18;98328.34;;;24.87;27.87
62025;BME280;47978;49.118;12.146;2022-07-17T10:55:52;98306.22;;;25.19;26.17
62025;BME280;47978;49.118;12.146;2022-07-17T10:58:22;98308.84;;;25.08;26.08
62025;BME280;47978;49.118;12.146;2022-07-17T11:00:58;98310.75;;;25.01;25.31
62025;BME280;47978;49.118;12.146;2022-07-17T11:03:25;98317.63;;;25.00;25.86
62025;BME280;47978;49.118;12.146;2022-07-17T11:05:52;98310.50;;;24.83;25.69
62025;BME280;47978;49.118;12.146;2022-07-17T11:08:19;98313.81;;;24.88;24.71
62025;BME280;47978;49.118;12.146;2022-07-17T11:10:46;98307.94;;;25.01;25.89
62025;BME280;47978;49.118;12.146;2022-07-17T11:13:14;98301.78;;;24.95;25.28
62025;BME280;47978;49.118;12.146;2022-07-17T11:15:43;98305.31;;;25.15;24.86
62025;BME280;47978;49.118;12.146;2022-07-17T11:18:13;98302.53;;;25.19;24.94
62025;BME280;47978;49.118;12.146;2022-07-17T11:20:48;98300.53;;;24.92;23.99
62025;BME280;47978;49.118;12.146;2022-07-17T11:23:15;98300.38;;;25.08;24.54
62025;BME280;47978;49.118;12.146;2022-07-17T11:25:52;98297.78;;;25.26;24.05
62025;BME280;47978;49.118;12.146;2022-07-17T11:28:27;98297.53;;;25.39;23.50
62025;BME280;47978;49.118;12.146;2022-07-17T11:30:54;98303.66;;;25.41;23.61
62025;BME280;47978;49.118;12.146;2022-07-17T11:33:22;98299.09;;;25.32;23.21
62025;BME280;47978;49.118;12.146;2022-07-17T11:35:49;98294.19;;;25.29;24.15
62025;BME280;47978;49.118;12.146;2022-07-17T11:38:23;98293.34;;;25.25;23.55
62025;BME280;47978;49.118;12.146;2022-07-17T11:40:51;98285.22;;;25.24;22.15
62025;BME280;47978;49.118;12.146;2022-07-17T11:43:24;98280.09;;;25.06;22.80
62025;BME280;47978;49.118;12.146;2022-07-17T11:45:51;98294.81;;;25.16;22.18
62025;BME280;47978;49.118;12.146;2022-07-17T11:48:18;98292.06;;;25.19;21.76
62025;BME280;47978;49.118;12.146;2022-07-17T11:50:56;98292.13;;;25.26;21.57
62025;BME280;47978;49.118;12.146;2022-07-17T11:53:34;98279.25;;;25.02;22.50
62025;BME280;47978;49.118;12.146;2022-07-17T11:56:01;98286.97;;;25.35;22.85
62025;BME280;47978;49.118;12.146;2022-07-17T11:58:28;98284.16;;;25.35;21.78
62025;BME280;47978;49.118;12.146;2022-07-17T12:01:06;98276.53;;;25.73;22.89
62025;BME280;47978;49.118;12.146;2022-07-17T12:03:32;98278.78;;;25.94;21.67
62025;BME280;47978;49.118;12.146;2022-07-17T12:06:01;98285.38;;;26.06;23.49
62025;BME280;47978;49.118;12.146;2022-07-17T12:08:27;98282.16;;;26.07;21.64
62025;BME280;47978;49.118;12.146;2022-07-17T12:11:02;98269.44;;;25.90;21.25
62025;BME280;47978;49.118;12.146;2022-07-17T12:13:41;98281.72;;;26.01;21.98
62025;BME280;47978;49.118;12.146;2022-07-17T12:16:25;98277.88;;;25.83;22.55
62025;BME280;47978;49.118;12.146;2022-07-17T12:19:01;98277.22;;;26.00;21.77
62025;BME280;47978;49.118;12.146;2022-07-17T12:21:29;98271.88;;;26.33;21.07
62025;BME280;47978;49.118;12.146;2022-07-17T12:23:58;98269.75;;;26.22;21.19
62025;BME280;47978;49.118;12.146;2022-07-17T12:26:24;98271.22;;;26.09;20.61
62025;BME280;47978;49.118;12.146;2022-07-17T12:28:52;98271.63;;;26.08;21.72
62025;BME280;47978;49.118;12.146;2022-07-17T12:31:26;98268.97;;;26.29;21.60
62025;BME280;47978;49.118;12.146;2022-07-17T12:33:53;98265.34;;;26.29;22.33
62025;BME280;47978;49.118;12.146;2022-07-17T12:36:21;98263.06;;;26.48;22.12
62025;BME280;47978;49.118;12.146;2022-07-17T12:38:50;98257.41;;;26.48;21.76
62025;BME280;47978;49.118;12.146;2022-07-17T12:41:17;98253.41;;;26.53;21.46
62025;BME280;47978;49.118;12.146;2022-07-17T12:43:44;98252.19;;;26.54;22.94
62025;BME280;47978;49.118;12.146;2022-07-17T12:46:11;98249.09;;;26.74;21.56
62025;BME280;47978;49.118;12.146;2022-07-17T12:48:52;98248.22;;;26.62;20.31
62025;BME280;47978;49.118;12.146;2022-07-17T12:51:19;98245.88;;;26.79;22.32
62025;BME280;47978;49.118;12.146;2022-07-17T12:53:45;98252.31;;;26.72;21.50
62025;BME280;47978;49.118;12.146;2022-07-17T12:56:14;98241.38;;;26.71;21.19
62025;BME280;47978;49.118;12.146;2022-07-17T12:58:40;98237.47;;;26.93;21.01
62025;BME280;47978;49.118;12.146;2022-07-17T13:01:08;98250.69;;;26.71;20.59
62025;BME280;47978;49.118;12.146;2022-07-17T13:03:34;98239.41;;;26.78;20.19
62025;BME280;47978;49.118;12.146;2022-07-17T13:06:02;98231.63;;;26.72;20.13
62025;BME280;47978;49.118;12.146;2022-07-17T13:08:30;98230.44;;;26.73;20.17
62025;BME280;47978;49.118;12.146;2022-07-17T13:10:58;98224.03;;;26.86;21.07
62025;BME280;47978;49.118;12.146;2022-07-17T13:13:28;98222.09;;;27.08;21.30
62025;BME280;47978;49.118;12.146;2022-07-17T13:15:55;98220.97;;;27.20;20.13
62025;BME280;47978;49.118;12.146;2022-07-17T13:18:22;98225.84;;;27.20;19.43
62025;BME280;47978;49.118;12.146;2022-07-17T13:20:49;98225.88;;;27.27;19.23
62025;BME280;47978;49.118;12.146;2022-07-17T13:23:15;98229.16;;;27.43;20.30
62025;BME280;47978;49.118;12.146;2022-07-17T13:25:42;98216.63;;;27.55;19.06
62025;BME280;47978;49.118;12.146;2022-07-17T13:28:09;98219.88;;;27.53;20.00
62025;BME280;47978;49.118;12.146;2022-07-17T13:30:37;98217.03;;;27.61;19.77
62025;BME280;47978;49.118;12.146;2022-07-17T13:33:04;98219.50;;;27.58;20.05
62025;BME280;47978;49.118;12.146;2022-07-17T13:35:31;98217.41;;;27.45;19.03
62025;BME280;47978;49.118;12.146;2022-07-17T13:37:57;98220.22;;;27.27;20.19
62025;BME280;47978;49.118;12.146;2022-07-17T13:40:24;98225.47;;;27.28;18.75
62025;BME280;47978;49.118;12.146;2022-07-17T13:42:51;98210.13;;;27.44;19.82
62025;BME280;47978;49.118;12.146;2022-07-17T13:45:17;98201.63;;;27.58;19.82
62025;BME280;47978;49.118;12.146;2022-07-17T13:47:45;98205.63;;;27.46;19.05
62025;BME280;47978;49.118;12.146;2022-07-17T13:50:12;98210.16;;;27.58;19.87
62025;BME280;47978;49.118;12.146;2022-07-17T13:52:40;98210.09;;;27.40;19.78
62025;BME280;47978;49.118;12.146;2022-07-17T13:55:07;98203.63;;;27.54;20.30
62025;BME280;47978;49.118;12.146;2022-07-17T13:57:54;98209.78;;;27.67;20.70
62025;BME280;47978;49.118;12.146;2022-07-17T14:00:21;98213.44;;;27.78;19.45
62025;BME280;47978;49.118;12.146;2022-07-17T14:02:48;98202.03;;;27.74;20.74
62025;BME280;47978;49.118;12.146;2022-07-17T14:05:15;98206.97;;;27.88;19.96
62025;BME280;47978;49.118;12.146;2022-07-17T14:07:42;98204.53;;;27.97;20.52
62025;BME280;47978;49.118;12.146;2022-07-17T14:10:09;98203.75;;;28.08;18.85
62025;BME280;47978;49.118;12.146;2022-07-17T14:12:36;98204.53;;;28.22;18.84
62025;BME280;47978;49.118;12.146;2022-07-17T14:15:04;98196.78;;;27.73;18.42
62025;BME280;47978;49.118;12.146;2022-07-17T14:17:31;98196.00;;;27.97;19.11
62025;BME280;47978;49.118;12.146;2022-07-17T14:19:59;98206.56;;;27.79;19.80
62025;BME280;47978;49.118;12.146;2022-07-17T14:22:25;98191.56;;;27.89;18.55
62025;BME280;47978;49.118;12.146;2022-07-17T14:24:52;98195.19;;;27.97;18.70
62025;BME280;47978;49.118;12.146;2022-07-17T14:27:18;98189.44;;;27.50;17.59
62025;BME280;47978;49.118;12.146;2022-07-17T14:29:45;98182.19;;;27.85;17.55
62025;BME280;47978;49.118;12.146;2022-07-17T14:32:12;98182.63;;;27.98;18.60
62025;BME280;47978;49.118;12.146;2022-07-17T14:34:38;98186.28;;;28.27;18.09
62025;BME280;47978;49.118;12.146;2022-07-17T14:37:06;98188.69;;;28.25;20.00
62025;BME280;47978;49.118;12.146;2022-07-17T14:39:33;98177.75;;;28.23;19.65
62025;BME280;47978;49.118;12.146;2022-07-17T14:42:00;98181.41;;;28.24;18.39
62025;BME280;47978;49.118;12.146;2022-07-17T14:44:27;98180.59;;;28.09;17.83
62025;BME280;47978;49.118;12.146;2022-07-17T14:46:54;98180.19;;;28.18;17.73
62025;BME280;47978;49.118;12.146;2022-07-17T14:49:20;98182.19;;;28.35;17.96
62025;BME280;47978;49.118;12.146;2022-07-17T14:51:50;98174.50;;;28.46;18.01
62025;BME280;47978;49.118;12.146;2022-07-17T14:54:19;98172.84;;;28.63;17.75
62025;BME280;47978;49.118;12.146;2022-07-17T14:56:46;98165.50;;;28.62;18.61
62025;BME280;47978;49.118;12.146;2022-07-17T14:59:13;98168.78;;;28.43;20.08
62025;BME280;47978;49.118;12.146;2022-07-17T15:01:39;98172.03;;;28.45;17.48
62025;BME280;47978;49.118;12.146;2022-07-17T15:04:07;98172.47;;;28.47;17.89
62025;BME280;47978;49.118;12.146;2022-07-17T15:06:34;98179.75;;;28.37;17.13
62025;BME280;47978;49.118;12.146;2022-07-17T15:09:01;98177.28;;;28.57;17.77
62025;BME280;47978;49.118;12.146;2022-07-17T15:11:29;98185.41;;;28.62;17.21
62025;BME280;47978;49.118;12.146;2022-07-17T15:13:56;98174.44;;;28.68;16.69
62025;BME280;47978;49.118;12.146;2022-07-17T15:16:23;98169.94;;;28.70;16.80
62025;BME280;47978;49.118;12.146;2022-07-17T15:18:49;98174.88;;;28.56;16.96
62025;BME280;47978;49.118;12.146;2022-07-17T15:21:16;98169.13;;;28.74;17.04
62025;BME280;47978;49.118;12.146;2022-07-17T15:24:03;98165.00;;;28.92;18.97
62025;BME280;47978;49.118;12.146;2022-07-17T15:26:31;98171.47;;;29.07;16.80
62025;BME280;47978;49.118;12.146;2022-07-17T15:28:57;98163.75;;;29.08;17.06
62025;BME280;47978;49.118;12.146;2022-07-17T15:31:24;98162.91;;;29.11;16.70
62025;BME280;47978;49.118;12.146;2022-07-17T15:33:51;98163.78;;;28.90;16.27
62025;BME280;47978;49.118;12.146;2022-07-17T15:36:17;98154.00;;;29.09;17.60
62025;BME280;47978;49.118;12.146;2022-07-17T15:38:44;98153.91;;;29.20;16.88
62025;BME280;47978;49.118;12.146;2022-07-17T15:41:10;98165.38;;;29.09;17.81
62025;BME280;47978;49.118;12.146;2022-07-17T15:43:38;98153.16;;;29.12;15.24
62025;BME280;47978;49.118;12.146;2022-07-17T15:46:05;98148.22;;;29.20;15.58
62025;BME280;47978;49.118;12.146;2022-07-17T15:48:32;98154.41;;;29.07;20.06
62025;BME280;47978;49.118;12.146;2022-07-17T15:50:58;98143.91;;;28.79;17.02
62025;BME280;47978;49.118;12.146;2022-07-17T15:53:25;98145.44;;;29.02;16.73
62025;BME280;47978;49.118;12.146;2022-07-17T15:55:51;98145.47;;;28.98;15.45
62025;BME280;47978;49.118;12.146;2022-07-17T15:58:18;98144.22;;;29.10;15.99
62025;BME280;47978;49.118;12.146;2022-07-17T16:00:46;98146.19;;;29.17;16.76
62025;BME280;47978;49.118;12.146;2022-07-17T16:03:13;98144.25;;;28.96;17.26
62025;BME280;47978;49.118;12.146;2022-07-17T16:05:39;98147.13;;;28.92;16.04
62025;BME280;47978;49.118;12.146;2022-07-17T16:08:06;98139.41;;;28.85;17.15
62025;BME280;47978;49.118;12.146;2022-07-17T16:10:33;98138.94;;;29.05;16.67
62025;BME280;47978;49.118;12.146;2022-07-17T16:13:00;98128.00;;;28.92;15.79
62025;BME280;47978;49.118;12.146;2022-07-17T16:15:26;98138.25;;;28.72;16.86
62025;BME280;47978;49.118;12.146;2022-07-17T16:17:54;98132.13;;;28.74;16.95
62025;BME280;47978;49.118;12.146;2022-07-17T16:20:21;98138.22;;;28.76;16.95
62025;BME280;47978;49.118;12.146;2022-07-17T16:22:48;98130.84;;;28.85;15.99
62025;BME280;47978;49.118;12.146;2022-07-17T16:25:14;98130.84;;;28.89;15.89
62025;BME280;47978;49.118;12.146;2022-07-17T16:27:41;98128.53;;;28.59;16.26
62025;BME280;47978;49.118;12.146;2022-07-17T16:30:08;98129.31;;;28.59;17.22
62025;BME280;47978;49.118;12.146;2022-07-17T16:32:35;98124.00;;;28.72;16.79
62025;BME280;47978;49.118;12.146;2022-07-17T16:35:04;98118.63;;;28.88;16.93
62025;BME280;47978;49.118;12.146;2022-07-17T16:37:31;98117.41;;;28.93;17.28
62025;BME280;47978;49.118;12.146;2022-07-17T16:39:58;98122.81;;;28.59;16.99
62025;BME280;47978;49.118;12.146;2022-07-17T16:42:24;98111.38;;;28.73;17.22
62025;BME280;47978;49.118;12.146;2022-07-17T16:44:51;98113.38;;;28.80;17.28
62025;BME280;47978;49.118;12.146;2022-07-17T16:47:18;98106.47;;;28.84;16.77
62025;BME280;47978;49.118;12.146;2022-07-17T16:49:45;98108.19;;;28.64;16.50
62025;BME280;47978;49.118;12.146;2022-07-17T16:52:13;98105.75;;;28.59;17.42
62025;BME280;47978;49.118;12.146;2022-07-17T16:54:40;98104.50;;;28.60;16.90
62025;BME280;47978;49.118;12.146;2022-07-17T16:57:06;98102.97;;;28.27;18.96
62025;BME280;47978;49.118;12.146;2022-07-17T16:59:33;98108.22;;;28.42;17.01
62025;BME280;47978;49.118;12.146;2022-07-17T17:02:00;98100.50;;;28.43;17.67
62025;BME280;47978;49.118;12.146;2022-07-17T17:04:27;98106.59;;;28.31;23.11
62025;BME280;47978;49.118;12.146;2022-07-17T17:06:53;98108.69;;;28.05;19.00
62025;BME280;47978;49.118;12.146;2022-07-17T17:09:23;98106.66;;;28.06;19.86
62025;BME280;47978;49.118;12.146;2022-07-17T17:11:49;98102.09;;;28.40;19.21
62025;BME280;47978;49.118;12.146;2022-07-17T17:14:17;98098.50;;;28.18;21.66
62025;BME280;47978;49.118;12.146;2022-07-17T17:16:44;98096.84;;;28.39;22.42
62025;BME280;47978;49.118;12.146;2022-07-17T17:19:11;98098.94;;;27.99;22.95
62025;BME280;47978;49.118;12.146;2022-07-17T17:21:38;98094.03;;;28.21;22.26
62025;BME280;47978;49.118;12.146;2022-07-17T17:24:05;98100.16;;;27.69;22.35
62025;BME280;47978;49.118;12.146;2022-07-17T17:26:33;98096.91;;;27.85;22.97
62025;BME280;47978;49.118;12.146;2022-07-17T17:28:59;98092.00;;;27.46;19.02
62025;BME280;47978;49.118;12.146;2022-07-17T17:31:26;98090.00;;;27.65;21.93
62025;BME280;47978;49.118;12.146;2022-07-17T17:33:53;98086.63;;;26.98;24.77
62025;BME280;47978;49.118;12.146;2022-07-17T17:36:19;98092.22;;;26.80;24.45
62025;BME280;47978;49.118;12.146;2022-07-17T17:38:46;98094.63;;;26.71;24.45
62025;BME280;47978;49.118;12.146;2022-07-17T17:41:13;98102.00;;;26.94;25.25
62025;BME280;47978;49.118;12.146;2022-07-17T17:43:41;98094.63;;;26.67;26.02
62025;BME280;47978;49.118;12.146;2022-07-17T17:46:08;98100.03;;;26.24;25.75
62025;BME280;47978;49.118;12.146;2022-07-17T17:48:35;98098.38;;;26.20;24.59
62025;BME280;47978;49.118;12.146;2022-07-17T17:51:01;98102.88;;;26.24;26.52
62025;BME280;47978;49.118;12.146;2022-07-17T17:53:28;98111.25;;;26.07;26.94
62025;BME280;47978;49.118;12.146;2022-07-17T17:55:55;98099.72;;;25.82;26.06
62025;BME280;47978;49.118;12.146;2022-07-17T17:58:22;98104.03;;;25.65;25.95
62025;BME280;47978;49.118;12.146;2022-07-17T18:00:50;98103.16;;;25.57;25.46
62025;BME280;47978;49.118;12.146;2022-07-17T18:03:16;98100.09;;;25.35;25.43
62025;BME280;47978;49.118;12.146;2022-07-17T18:05:43;98107.88;;;25.05;26.32
62025;BME280;47978;49.118;12.146;2022-07-17T18:08:09;98103.94;;;24.79;26.00
62025;BME280;47978;49.118;12.146;2022-07-17T18:10:36;98110.63;;;24.67;27.07
62025;BME280;47978;49.118;12.146;2022-07-17T18:13:03;98103.94;;;24.49;27.71
62025;BME280;47978;49.118;12.146;2022-07-17T18:15:30;98113.78;;;24.32;28.68
62025;BME280;47978;49.118;12.146;2022-07-17T18:17:58;98113.19;;;23.93;29.75
62025;BME280;47978;49.118;12.146;2022-07-17T18:20:24;98115.59;;;23.45;30.85
62025;BME280;47978;49.118;12.146;2022-07-17T18:22:51;98117.25;;;23.23;30.87
62025;BME280;47978;49.118;12.146;2022-07-17T18:25:18;98122.22;;;23.10;31.22
62025;BME280;47978;49.118;12.146;2022-07-17T18:27:44;98122.03;;;22.80;32.48
62025;BME280;47978;49.118;12.146;2022-07-17T18:30:11;98120.16;;;22.68;33.04
62025;BME280;47978;49.118;12.146;2022-07-17T18:32:38;98112.50;;;22.30;33.66
62025;BME280;47978;49.118;12.146;2022-07-17T18:35:07;98124.88;;;22.09;33.91
62025;BME280;47978;49.118;12.146;2022-07-17T18:37:33;98123.00;;;21.97;34.34
62025;BME280;47978;49.118;12.146;2022-07-17T18:40:00;98121.81;;;21.83;34.73
62025;BME280;47978;49.118;12.146;2022-07-17T18:42:27;98121.94;;;21.70;34.94
62025;BME280;47978;49.118;12.146;2022-07-17T18:44:53;98126.31;;;21.52;35.61
62025;BME280;47978;49.118;12.146;2022-07-17T18:47:20;98125.03;;;21.49;34.88
62025;BME280;47978;49.118;12.146;2022-07-17T18:49:47;98130.44;;;21.26;35.53
62025;BME280;47978;49.118;12.146;2022-07-17T18:52:15;98134.28;;;21.06;35.78
62025;BME280;47978;49.118;12.146;2022-07-17T18:54:41;98137.72;;;20.83;36.15
62025;BME280;47978;49.118;12.146;2022-07-17T18:57:08;98131.81;;;20.60;37.00
62025;BME280;47978;49.118;12.146;2022-07-17T18:59:34;98129.72;;;20.45;36.89
62025;BME280;47978;49.118;12.146;2022-07-17T19:02:14;98137.25;;;20.29;37.56
62025;BME280;47978;49.118;12.146;2022-07-17T19:04:41;98130.38;;;20.14;37.76
62025;BME280;47978;49.118;12.146;2022-07-17T19:07:08;98139.53;;;19.98;37.91
62025;BME280;47978;49.118;12.146;2022-07-17T19:09:36;98137.31;;;19.80;38.07
62025;BME280;47978;49.118;12.146;2022-07-17T19:12:03;98142.81;;;19.76;38.21
62025;BME280;47978;49.118;12.146;2022-07-17T19:14:29;98150.88;;;19.65;38.44
62025;BME280;47978;49.118;12.146;2022-07-17T19:16:56;98151.41;;;19.46;38.86
62025;BME280;47978;49.118;12.146;2022-07-17T19:19:22;98156.66;;;19.36;38.92
62025;BME280;47978;49.118;12.146;2022-07-17T19:21:49;98150.19;;;19.10;39.48
62025;BME280;47978;49.118;12.146;2022-07-17T19:24:16;98156.34;;;19.04;39.44
62025;BME280;47978;49.118;12.146;2022-07-17T19:26:44;98157.88;;;19.01;39.31
62025;BME280;47978;49.118;12.146;2022-07-17T19:29:10;98171.38;;;18.87;39.75
62025;BME280;47978;49.118;12.146;2022-07-17T19:31:37;98170.81;;;18.73;39.25
62025;BME280;47978;49.118;12.146;2022-07-17T19:34:04;98173.59;;;18.52;40.02
62025;BME280;47978;49.118;12.146;2022-07-17T19:36:30;98176.06;;;18.32;40.29
62025;BME280;47978;49.118;12.146;2022-07-17T19:38:57;98175.44;;;18.27;40.53
62025;BME280;47978;49.118;12.146;2022-07-17T19:41:24;98182.13;;;18.13;40.42
62025;BME280;47978;49.118;12.146;2022-07-17T19:43:52;98186.94;;;18.04;40.20
62025;BME280;47978;49.118;12.146;2022-07-17T19:46:19;98192.41;;;18.01;39.92
62025;BME280;47978;49.118;12.146;2022-07-17T19:48:46;98198.53;;;17.94;39.92
62025;BME280;47978;49.118;12.146;2022-07-17T19:51:12;98197.59;;;17.81;39.85
62025;BME280;47978;49.118;12.146;2022-07-17T19:53:39;98199.56;;;17.81;39.32
62025;BME280;47978;49.118;12.146;2022-07-17T19:56:06;98202.38;;;17.72;39.37
62025;BME280;47978;49.118;12.146;2022-07-17T19:58:33;98206.84;;;17.64;40.09
62025;BME280;47978;49.118;12.146;2022-07-17T20:01:01;98207.88;;;17.60;39.73
62025;BME280;47978;49.118;12.146;2022-07-17T20:03:27;98201.16;;;17.52;40.01
62025;BME280;47978;49.118;12.146;2022-07-17T20:05:54;98219.13;;;17.42;40.87
62025;BME280;47978;49.118;12.146;2022-07-17T20:08:21;98211.22;;;17.36;41.59
62025;BME280;47978;49.118;12.146;2022-07-17T20:10:47;98214.34;;;17.43;41.95
62025;BME280;47978;49.118;12.146;2022-07-17T20:13:14;98216.16;;;17.39;42.15
62025;BME280;47978;49.118;12.146;2022-07-17T20:15:41;98211.25;;;17.27;41.94
62025;BME280;47978;49.118;12.146;2022-07-17T20:18:09;98213.91;;;17.15;42.15
62025;BME280;47978;49.118;12.146;2022-07-17T20:20:36;98219.84;;;17.04;43.05
62025;BME280;47978;49.118;12.146;2022-07-17T20:23:02;98221.31;;;16.93;43.63
62025;BME280;47978;49.118;12.146;2022-07-17T20:25:30;98218.72;;;16.79;43.72
62025;BME280;47978;49.118;12.146;2022-07-17T20:27:56;98220.66;;;16.70;43.98
62025;BME280;47978;49.118;12.146;2022-07-17T20:30:23;98219.03;;;16.60;44.29
62025;BME280;47978;49.118;12.146;2022-07-17T20:32:50;98210.13;;;16.50;44.46
62025;BME280;47978;49.118;12.146;2022-07-17T20:35:18;98215.88;;;16.45;44.25
62025;BME280;47978;49.118;12.146;2022-07-17T20:37:44;98215.06;;;16.44;43.95
62025;BME280;47978;49.118;12.146;2022-07-17T20:40:11;98218.34;;;16.37;44.25
62025;BME280;47978;49.118;12.146;2022-07-17T20:42:38;98211.94;;;16.37;44.36
62025;BME280;47978;49.118;12.146;2022-07-17T20:45:05;98221.13;;;16.37;44.70
62025;BME280;47978;49.118;12.146;2022-07-17T20:47:47;98215.56;;;16.37;45.41
62025;BME280;47978;49.118;12.146;2022-07-17T20:50:13;98218.31;;;16.20;45.55
62025;BME280;47978;49.118;12.146;2022-07-17T20:52:41;98217.81;;;16.18;45.54
62025;BME280;47978;49.118;12.146;2022-07-17T20:55:08;98220.41;;;16.06;45.57
62025;BME280;47978;49.118;12.146;2022-07-17T20:57:36;98215.13;;;15.95;46.30
62025;BME280;47978;49.118;12.146;2022-07-17T21:00:11;98221.03;;;15.85;46.52
62025;BME280;47978;49.118;12.146;2022-07-17T21:02:37;98221.50;;;15.87;46.74
62025;BME280;47978;49.118;12.146;2022-07-17T21:05:05;98224.78;;;15.81;46.83
62025;BME280;47978;49.118;12.146;2022-07-17T21:07:39;98225.03;;;15.70;47.09
62025;BME280;47978;49.118;12.146;2022-07-17T21:10:07;98227.53;;;15.72;47.02
62025;BME280;47978;49.118;12.146;2022-07-17T21:12:34;98230.56;;;15.62;47.22
62025;BME280;47978;49.118;12.146;2022-07-17T21:15:01;98229.19;;;15.50;47.52
62025;BME280;47978;49.118;12.146;2022-07-17T21:17:27;98226.06;;;15.43;47.84
62025;BME280;47978;49.118;12.146;2022-07-17T21:19:54;98222.44;;;15.43;47.95
62025;BME280;47978;49.118;12.146;2022-07-17T21:22:21;98233.91;;;15.41;47.58
62025;BME280;47978;49.118;12.146;2022-07-17T21:24:47;98236.50;;;15.38;47.57
62025;BME280;47978;49.118;12.146;2022-07-17T21:27:15;98228.59;;;15.31;47.79
62025;BME280;47978;49.118;12.146;2022-07-17T21:29:42;98234.16;;;15.31;47.59
62025;BME280;47978;49.118;12.146;2022-07-17T21:32:08;98236.19;;;15.39;47.53
62025;BME280;47978;49.118;12.146;2022-07-17T21:34:35;98238.78;;;15.36;47.79
62025;BME280;47978;49.118;12.146;2022-07-17T21:37:02;98234.38;;;15.35;48.06
62025;BME280;47978;49.118;12.146;2022-07-17T21:39:28;98244.00;;;15.28;48.47
62025;BME280;47978;49.118;12.146;2022-07-17T21:41:55;98242.94;;;15.16;49.94
62025;BME280;47978;49.118;12.146;2022-07-17T21:44:23;98244.19;;;15.10;49.64
62025;BME280;47978;49.118;12.146;2022-07-17T21:46:49;98246.59;;;15.25;49.09
62025;BME280;47978;49.118;12.146;2022-07-17T21:49:16;98251.09;;;15.35;48.79
62025;BME280;47978;49.118;12.146;2022-07-17T21:51:43;98253.00;;;15.25;49.62
62025;BME280;47978;49.118;12.146;2022-07-17T21:54:09;98252.16;;;15.25;49.69
62025;BME280;47978;49.118;12.146;2022-07-17T21:56:36;98253.66;;;15.00;51.13
62025;BME280;47978;49.118;12.146;2022-07-17T21:59:03;98256.69;;;14.90;51.00
62025;BME280;47978;49.118;12.146;2022-07-17T22:01:31;98257.44;;;14.81;51.22
62025;BME280;47978;49.118;12.146;2022-07-17T22:03:58;98259.56;;;14.84;50.79
62025;BME280;47978;49.118;12.146;2022-07-17T22:06:25;98261.22;;;14.85;51.29
62025;BME280;47978;49.118;12.146;2022-07-17T22:08:52;98258.81;;;14.70;51.92
62025;BME280;47978;49.118;12.146;2022-07-17T22:11:19;98264.69;;;14.69;51.05
62025;BME280;47978;49.118;12.146;2022-07-17T22:13:46;98261.69;;;14.65;52.77
62025;BME280;47978;49.118;12.146;2022-07-17T22:16:13;98263.28;;;14.57;53.42
62025;BME280;47978;49.118;12.146;2022-07-17T22:18:42;98256.06;;;14.43;53.70
62025;BME280;47978;49.118;12.146;2022-07-17T22:21:09;98254.84;;;14.35;54.19
62025;BME280;47978;49.118;12.146;2022-07-17T22:23:36;98251.13;;;14.39;54.10
62025;BME280;47978;49.118;12.146;2022-07-17T22:26:04;98260.34;;;14.26;54.33
62025;BME280;47978;49.118;12.146;2022-07-17T22:28:31;98261.44;;;14.25;54.15
62025;BME280;47978;49.118;12.146;2022-07-17T22:30:58;98254.88;;;14.21;54.13
62025;BME280;47978;49.118;12.146;2022-07-17T22:33:25;98255.41;;;14.23;54.52
62025;BME280;47978;49.118;12.146;2022-07-17T22:35:53;98259.19;;;14.27;54.63
62025;BME280;47978;49.118;12.146;2022-07-17T22:38:19;98262.06;;;14.22;55.18
62025;BME280;47978;49.118;12.146;2022-07-17T22:40:46;98258.03;;;14.42;54.35
62025;BME280;47978;49.118;12.146;2022-07-17T22:43:12;98248.22;;;14.45;54.05
62025;BME280;47978;49.118;12.146;2022-07-17T22:45:39;98252.44;;;14.56;54.00
62025;BME280;47978;49.118;12.146;2022-07-17T22:48:06;98247.59;;;14.61;54.02
62025;BME280;47978;49.118;12.146;2022-07-17T22:50:32;98257.50;;;14.54;54.32
62025;BME280;47978;49.118;12.146;2022-07-17T22:53:00;98247.41;;;14.58;54.63
62025;BME280;47978;49.118;12.146;2022-07-17T22:55:27;98248.41;;;14.48;54.98
62025;BME280;47978;49.118;12.146;2022-07-17T22:57:54;98249.28;;;14.35;55.56
62025;BME280;47978;49.118;12.146;2022-07-17T23:00:21;98248.78;;;14.33;55.54
62025;BME280;47978;49.118;12.146;2022-07-17T23:02:48;98240.34;;;14.10;55.97
62025;BME280;47978;49.118;12.146;2022-07-17T23:05:15;98251.91;;;14.04;56.18
62025;BME280;47978;49.118;12.146;2022-07-17T23:07:42;98257.47;;;13.90;57.02
62025;BME280;47978;49.118;12.146;2022-07-17T23:10:12;98254.50;;;13.86;56.96
62025;BME280;47978;49.118;12.146;2022-07-17T23:12:39;98259.09;;;13.91;56.94
62025;BME280;47978;49.118;12.146;2022-07-17T23:15:06;98255.50;;;13.77;57.58
62025;BME280;47978;49.118;12.146;2022-07-17T23:17:33;98257.47;;;13.76;57.20
62025;BME280;47978;49.118;12.146;2022-07-17T23:20:00;98258.06;;;13.73;57.53
62025;BME280;47978;49.118;12.146;2022-07-17T23:22:27;98249.66;;;13.78;57.60
62025;BME280;47978;49.118;12.146;2022-07-17T23:24:53;98252.63;;;13.68;57.89
62025;BME280;47978;49.118;12.146;2022-07-17T23:27:21;98248.81;;;13.64;58.19
62025;BME280;47978;49.118;12.146;2022-07-17T23:29:48;98254.03;;;13.52;58.67
62025;BME280;47978;49.118;12.146;2022-07-17T23:32:14;98259.72;;;13.46;59.05
62025;BME280;47978;49.118;12.146;2022-07-17T23:34:41;98262.47;;;13.46;58.83
62025;BME280;47978;49.118;12.146;2022-07-17T23:37:08;98254.34;;;13.50;58.55